Time;durP1;ratioP1;P1;durP2;ratioP2;P2;SDS_P1;SDS_P2;PMS_P1;PMS_P2;Temp;Humidity;BMP_temperature;BMP_pressure;BME280_temperature;BME280_humidity;BME280_pressure;Samples;Min_cycle;Max_cycle;Signal;HPM_P1;HPM_P2
2021/04/29 00:00:16;;;;;;;7.40;5.07;;;10.70;74.10;;;;;;5176747;28;20693;-67
2021/04/29 00:02:48;;;;;;;6.10;4.80;;;10.80;73.80;;;;;;5176386;28;20556;-67
2021/04/29 00:05:23;;;;;;;7.55;4.80;;;10.70;74.10;;;;;;5177420;28;20046;-67
2021/04/29 00:07:56;;;;;;;7.22;5.22;;;10.70;73.90;;;;;;5177211;28;20050;-66
2021/04/29 00:10:29;;;;;;;6.47;4.35;;;10.90;73.70;;;;;;5176608;28;20136;-67
2021/04/29 00:13:01;;;;;;;8.52;4.82;;;11.00;73.20;;;;;;5176430;28;20076;-67
2021/04/29 00:15:32;;;;;;;7.10;4.88;;;11.00;72.90;;;;;;5158675;28;20508;-67
2021/04/29 00:18:04;;;;;;;7.30;4.90;;;11.10;72.50;;;;;;5177636;28;20041;-67
2021/04/29 00:20:36;;;;;;;7.15;5.25;;;11.10;73.00;;;;;;5176574;28;20056;-67
2021/04/29 00:23:08;;;;;;;7.32;5.30;;;11.10;72.80;;;;;;5174960;28;20166;-67
2021/04/29 00:25:39;;;;;;;6.20;4.38;;;11.10;72.90;;;;;;5175597;28;20463;-67
2021/04/29 00:28:11;;;;;;;7.40;4.05;;;10.80;73.30;;;;;;5176117;28;20155;-67
2021/04/29 00:30:42;;;;;;;6.18;4.60;;;10.60;73.90;;;;;;5176836;28;20046;-66
2021/04/29 00:33:14;;;;;;;5.57;4.57;;;10.40;74.40;;;;;;5176583;28;20509;-66
2021/04/29 00:35:45;;;;;;;5.93;4.40;;;10.30;74.80;;;;;;5176489;28;20078;-68
2021/04/29 00:38:17;;;;;;;7.22;4.32;;;10.20;75.10;;;;;;5176284;28;20053;-67
2021/04/29 00:40:48;;;;;;;7.15;4.68;;;10.10;75.50;;;;;;5175345;28;20100;-67
2021/04/29 00:43:20;;;;;;;7.05;4.60;;;10.10;75.60;;;;;;5177085;28;20050;-67
2021/04/29 00:45:51;;;;;;;6.47;4.95;;;10.10;75.60;;;;;;5176115;28;20038;-66
2021/04/29 00:48:23;;;;;;;5.68;4.90;;;10.10;75.60;;;;;;5176892;28;20570;-66
2021/04/29 00:50:54;;;;;;;7.78;4.97;;;10.10;75.50;;;;;;5163510;28;20041;-67
2021/04/29 00:53:39;;;;;;;7.60;4.60;;;10.10;75.40;;;;;;5176425;28;20124;-66
2021/04/29 00:56:11;;;;;;;6.28;4.43;;;10.10;75.30;;;;;;5155370;28;20074;-66
2021/04/29 00:58:43;;;;;;;7.28;4.78;;;10.00;75.50;;;;;;5174020;28;20096;-66
2021/04/29 01:01:15;;;;;;;6.15;4.68;;;10.00;75.80;;;;;;5175267;28;20078;-66
2021/04/29 01:04:00;;;;;;;8.95;4.93;;;9.80;76.50;;;;;;5175636;28;20638;-66
2021/04/29 01:06:39;;;;;;;6.72;4.72;;;9.80;76.80;;;;;;5174833;28;20081;-66
2021/04/29 01:09:17;;;;;;;7.30;4.90;;;9.80;77.00;;;;;;5176392;28;20113;-66
2021/04/29 01:11:53;;;;;;;6.25;4.85;;;9.80;77.10;;;;;;5175532;28;20066;-67
2021/04/29 01:14:26;;;;;;;7.65;5.30;;;9.80;77.20;;;;;;5176227;28;20053;-67
2021/04/29 01:16:58;;;;;;;6.68;4.80;;;9.80;77.10;;;;;;5175533;28;20065;-67
2021/04/29 01:19:44;;;;;;;6.95;5.63;;;9.70;77.10;;;;;;5156379;28;20097;-67
2021/04/29 01:22:16;;;;;;;8.48;5.07;;;9.70;77.00;;;;;;5175352;28;20092;-68
2021/04/29 01:24:55;;;;;;;5.72;4.70;;;9.60;76.90;;;;;;5173629;28;20050;-67
2021/04/29 01:27:27;;;;;;;6.95;4.63;;;9.60;76.90;;;;;;5176393;28;20179;-68
2021/04/29 01:30:03;;;;;;;6.78;4.70;;;9.60;76.90;;;;;;5176067;28;20476;-67
2021/04/29 01:32:36;;;;;;;6.57;4.78;;;9.70;76.70;;;;;;5174556;28;20101;-67
2021/04/29 01:35:09;;;;;;;7.15;5.25;;;9.70;76.20;;;;;;5175510;28;20411;-67
2021/04/29 01:37:41;;;;;;;5.80;4.68;;;9.70;76.20;;;;;;5175637;28;20511;-67
2021/04/29 01:40:13;;;;;;;6.93;5.22;;;9.70;76.60;;;;;;5174901;28;20758;-67
2021/04/29 01:42:44;;;;;;;5.88;4.60;;;9.70;76.60;;;;;;5157953;28;20045;-67
2021/04/29 01:45:16;;;;;;;6.43;5.10;;;9.70;76.50;;;;;;5142413;28;20220;-67
2021/04/29 01:47:47;;;;;;;7.57;5.30;;;9.70;76.50;;;;;;5176472;28;20603;-67
2021/04/29 01:50:19;;;;;;;6.78;4.93;;;9.70;76.50;;;;;;5174624;28;20503;-67
2021/04/29 01:52:51;;;;;;;7.97;5.53;;;9.70;76.60;;;;;;5175680;28;20145;-67
2021/04/29 01:55:23;;;;;;;7.72;5.38;;;9.70;76.70;;;;;;5174656;28;20531;-67
2021/04/29 01:57:55;;;;;;;6.88;4.90;;;9.70;76.80;;;;;;5173991;28;20042;-67
2021/04/29 02:00:27;;;;;;;8.73;5.18;;;9.70;76.80;;;;;;5175930;28;20050;-67
2021/04/29 02:03:01;;;;;;;7.78;5.15;;;9.70;76.80;;;;;;5157091;28;20116;-67
2021/04/29 02:05:33;;;;;;;6.60;5.05;;;9.80;76.60;;;;;;5175074;28;20388;-67
2021/04/29 02:08:05;;;;;;;6.80;4.45;;;9.90;76.60;;;;;;5176743;28;20119;-67
2021/04/29 02:10:36;;;;;;;8.00;5.30;;;9.90;76.40;;;;;;5178887;28;20049;-67
2021/04/29 02:13:12;;;;;;;6.50;5.30;;;9.90;76.50;;;;;;5158350;28;20079;-67
2021/04/29 02:15:50;;;;;;;6.60;5.57;;;9.80;76.60;;;;;;5175263;28;20050;-69
2021/04/29 02:18:22;;;;;;;8.85;4.80;;;9.80;76.30;;;;;;5174647;28;20096;-67
2021/04/29 02:20:56;;;;;;;6.05;4.70;;;9.90;76.00;;;;;;5178155;28;20137;-67
2021/04/29 02:23:28;;;;;;;6.53;5.32;;;9.90;75.90;;;;;;5179117;28;20131;-67
2021/04/29 02:26:00;;;;;;;7.85;5.13;;;9.90;76.20;;;;;;5177821;28;20056;-67
2021/04/29 02:28:34;;;;;;;7.88;5.25;;;9.90;76.20;;;;;;5179128;28;20059;-67
2021/04/29 02:31:06;;;;;;;7.78;5.32;;;10.00;76.10;;;;;;5160621;28;20484;-67
2021/04/29 02:33:38;;;;;;;7.35;5.03;;;10.10;76.00;;;;;;5179309;28;20045;-67
2021/04/29 02:36:10;;;;;;;7.30;5.30;;;10.20;75.90;;;;;;5178630;28;20736;-67
2021/04/29 02:38:42;;;;;;;5.90;4.88;;;10.20;75.70;;;;;;5178591;28;20077;-67
2021/04/29 02:41:13;;;;;;;7.35;5.60;;;10.00;75.40;;;;;;5178815;28;20045;-67
2021/04/29 02:43:45;;;;;;;6.53;5.25;;;10.00;75.80;;;;;;5179412;28;20054;-67
2021/04/29 02:46:19;;;;;;;7.72;5.65;;;10.00;75.60;;;;;;5178416;28;20107;-67
2021/04/29 02:48:50;;;;;;;8.30;5.18;;;10.00;75.50;;;;;;5159168;28;20108;-67
2021/04/29 02:51:22;;;;;;;9.55;5.55;;;10.00;76.00;;;;;;5175526;28;20045;-67
2021/04/29 02:53:53;;;;;;;7.97;5.47;;;10.10;76.00;;;;;;5178218;28;20713;-68
2021/04/29 02:56:25;;;;;;;6.88;5.25;;;10.00;75.70;;;;;;5161566;28;20073;-67
2021/04/29 02:58:56;;;;;;;9.48;6.30;;;10.10;75.80;;;;;;5160931;28;20045;-67
2021/04/29 03:01:28;;;;;;;8.68;5.40;;;10.20;76.60;;;;;;5178883;28;20817;-67
2021/04/29 03:04:00;;;;;;;10.65;6.30;;;10.20;76.10;;;;;;5159075;28;20538;-67
2021/04/29 03:06:31;;;;;;;9.07;6.60;;;10.30;76.90;;;;;;5177099;28;20053;-67
2021/04/29 03:09:04;;;;;;;8.48;5.90;;;10.30;76.50;;;;;;5178369;28;20041;-67
2021/04/29 03:11:36;;;;;;;10.00;5.55;;;10.40;76.40;;;;;;5175690;28;20034;-67
2021/04/29 03:14:07;;;;;;;6.78;5.32;;;10.40;76.00;;;;;;5178740;28;20112;-67
2021/04/29 03:16:39;;;;;;;7.28;5.10;;;10.40;77.20;;;;;;5176496;28;20043;-67
2021/04/29 03:19:10;;;;;;;7.97;6.35;;;10.40;76.10;;;;;;5161580;28;20042;-67
2021/04/29 03:21:42;;;;;;;8.90;7.07;;;10.50;76.30;;;;;;5177207;28;20046;-68
2021/04/29 03:24:13;;;;;;;8.73;6.30;;;10.50;76.10;;;;;;5179004;28;20046;-67
2021/04/29 03:26:45;;;;;;;8.25;6.22;;;10.50;75.60;;;;;;5178196;28;20050;-67
2021/04/29 03:29:17;;;;;;;8.45;7.18;;;10.60;75.70;;;;;;5179432;28;20093;-66
2021/04/29 03:31:48;;;;;;;8.63;7.05;;;10.50;75.70;;;;;;5177619;28;20368;-66
2021/04/29 03:34:47;;;;;;;8.20;6.97;;;10.60;75.80;;;;;;5177968;28;20041;-67
2021/04/29 03:37:19;;;;;;;9.48;7.32;;;10.60;75.50;;;;;;5176872;28;20514;-66
2021/04/29 03:39:50;;;;;;;8.30;6.75;;;10.50;75.50;;;;;;5145467;28;20033;-66
2021/04/29 03:42:21;;;;;;;8.63;6.82;;;10.50;75.80;;;;;;5176927;28;20034;-66
2021/04/29 03:44:53;;;;;;;8.88;6.63;;;10.50;76.00;;;;;;5178362;28;20151;-66
2021/04/29 03:47:24;;;;;;;9.45;6.55;;;10.50;76.70;;;;;;5177580;28;20396;-66
2021/04/29 03:49:56;;;;;;;11.85;7.22;;;10.50;76.50;;;;;;5160127;28;20054;-66
2021/04/29 03:52:27;;;;;;;9.45;7.38;;;10.50;76.20;;;;;;5178069;28;20054;-67
2021/04/29 03:54:59;;;;;;;8.48;6.68;;;10.60;75.60;;;;;;5175169;28;20046;-66
2021/04/29 03:57:31;;;;;;;7.82;6.53;;;10.60;76.00;;;;;;5177555;28;20046;-66
2021/04/29 04:00:06;;;;;;;9.30;6.68;;;10.60;76.60;;;;;;5160412;28;20049;-66
2021/04/29 04:02:38;;;;;;;10.30;7.13;;;10.60;75.90;;;;;;5164551;28;20054;-66
2021/04/29 04:05:10;;;;;;;8.70;7.55;;;10.60;76.10;;;;;;5159189;28;20078;-66
2021/04/29 04:07:41;;;;;;;7.43;6.20;;;10.60;75.70;;;;;;5177834;28;20708;-66
2021/04/29 04:10:13;;;;;;;6.65;4.95;;;10.50;75.50;;;;;;5159356;28;20049;-66
2021/04/29 04:12:44;;;;;;;7.55;5.35;;;10.50;75.50;;;;;;5160257;28;20416;-66
2021/04/29 04:15:16;;;;;;;6.18;4.82;;;10.50;74.70;;;;;;5174758;28;20038;-66
2021/04/29 04:17:47;;;;;;;6.13;4.72;;;10.60;74.30;;;;;;5177948;28;20590;-66
2021/04/29 04:20:25;;;;;;;5.40;4.60;;;10.60;74.10;;;;;;5156018;28;20551;-66
2021/04/29 04:22:57;;;;;;;6.22;4.80;;;10.60;74.30;;;;;;5153853;28;20070;-66
2021/04/29 04:25:28;;;;;;;4.97;4.13;;;10.60;73.80;;;;;;5177117;28;20407;-67
2021/04/29 04:28:00;;;;;;;5.38;3.92;;;10.60;74.20;;;;;;5178039;28;20105;-66
2021/04/29 04:30:32;;;;;;;4.97;3.95;;;10.70;73.70;;;;;;5175304;28;20042;-66
2021/04/29 04:33:04;;;;;;;5.05;4.10;;;10.70;73.40;;;;;;5177056;28;20038;-66
2021/04/29 04:35:35;;;;;;;5.30;4.10;;;10.40;73.30;;;;;;5175720;28;20045;-66
2021/04/29 04:38:07;;;;;;;5.25;4.10;;;10.30;73.60;;;;;;5143310;28;20053;-66
2021/04/29 04:40:39;;;;;;;5.38;4.15;;;10.20;73.80;;;;;;5171871;28;20189;-67
2021/04/29 04:43:10;;;;;;;5.93;4.45;;;10.10;73.60;;;;;;5158966;28;20073;-66
2021/04/29 04:45:43;;;;;;;8.27;5.22;;;10.10;72.30;;;;;;5175733;28;20569;-66
2021/04/29 04:48:15;;;;;;;6.88;4.78;;;9.90;71.80;;;;;;5176710;28;20061;-67
2021/04/29 04:50:46;;;;;;;5.72;4.47;;;9.90;71.50;;;;;;5175070;28;20115;-66
2021/04/29 04:53:19;;;;;;;7.10;4.68;;;9.90;69.30;;;;;;5173003;28;20049;-66
2021/04/29 04:55:51;;;;;;;6.55;4.95;;;10.00;69.20;;;;;;5165871;28;20073;-66
2021/04/29 04:58:23;;;;;;;5.95;4.57;;;10.10;68.90;;;;;;5170111;28;20457;-66
2021/04/29 05:00:54;;;;;;;6.82;4.85;;;10.10;67.60;;;;;;5174018;28;20121;-65
2021/04/29 05:03:26;;;;;;;6.78;4.00;;;10.10;67.60;;;;;;5172493;28;20048;-65
2021/04/29 05:05:58;;;;;;;6.60;4.65;;;10.20;67.60;;;;;;5174477;28;20046;-64
2021/04/29 05:08:30;;;;;;;9.70;4.90;;;10.30;66.20;;;;;;5174579;28;20070;-64
2021/04/29 05:11:01;;;;;;;6.00;4.50;;;10.30;65.20;;;;;;5174192;28;20046;-64
2021/04/29 05:13:36;;;;;;;7.43;4.95;;;10.30;64.10;;;;;;5173932;28;20042;-65
2021/04/29 05:16:08;;;;;;;7.15;5.28;;;10.20;64.10;;;;;;5169690;28;20046;-65
2021/04/29 05:18:39;;;;;;;7.18;4.60;;;10.20;62.40;;;;;;5174066;28;20420;-65
2021/04/29 05:21:11;;;;;;;11.68;5.78;;;10.30;62.20;;;;;;5173249;28;20045;-64
2021/04/29 05:23:44;;;;;;;7.70;5.28;;;10.30;61.80;;;;;;5171397;28;20714;-65
2021/04/29 05:26:15;;;;;;;8.93;5.85;;;10.40;62.50;;;;;;5171199;28;20045;-65
2021/04/29 05:28:47;;;;;;;6.40;4.85;;;10.50;60.70;;;;;;5158690;28;20062;-65
2021/04/29 05:31:19;;;;;;;8.77;5.68;;;10.40;60.80;;;;;;5167045;28;20042;-65
2021/04/29 05:33:51;;;;;;;7.88;4.75;;;10.40;61.30;;;;;;5173080;28;20138;-65
2021/04/29 05:36:22;;;;;;;7.63;5.07;;;10.30;62.40;;;;;;5172886;28;20134;-64
2021/04/29 05:38:54;;;;;;;7.28;5.20;;;10.30;60.80;;;;;;5172204;28;20049;-65
2021/04/29 05:41:25;;;;;;;10.60;5.43;;;10.40;61.10;;;;;;5165944;28;20419;-65
2021/04/29 05:43:57;;;;;;;9.55;5.40;;;10.40;61.40;;;;;;5176713;28;20074;-65
2021/04/29 05:46:28;;;;;;;7.35;5.10;;;10.40;60.30;;;;;;5176917;28;20585;-64
2021/04/29 05:49:00;;;;;;;8.32;5.20;;;10.40;60.80;;;;;;5173617;28;20088;-64
2021/04/29 05:51:31;;;;;;;9.25;4.70;;;10.40;60.70;;;;;;5167492;28;20046;-64
2021/04/29 05:54:03;;;;;;;9.10;5.10;;;10.50;61.00;;;;;;5161666;28;20076;-64
2021/04/29 05:56:34;;;;;;;9.68;4.90;;;10.50;60.20;;;;;;5175626;28;20103;-64
2021/04/29 05:59:06;;;;;;;8.68;4.85;;;10.50;60.90;;;;;;5179334;28;20053;-64
2021/04/29 06:01:37;;;;;;;10.27;5.40;;;10.50;61.40;;;;;;5178482;28;20060;-64
2021/04/29 06:04:09;;;;;;;10.40;6.28;;;10.50;61.60;;;;;;5155757;28;20045;-65
2021/04/29 06:06:40;;;;;;;9.13;5.78;;;10.50;61.20;;;;;;5177264;28;20690;-65
2021/04/29 06:09:12;;;;;;;12.93;6.63;;;10.50;61.20;;;;;;5177387;28;20057;-65
2021/04/29 06:11:43;;;;;;;12.45;6.70;;;10.50;61.20;;;;;;5176684;28;20038;-65
2021/04/29 06:14:15;;;;;;;8.95;4.63;;;10.50;61.80;;;;;;5178878;28;20600;-65
2021/04/29 06:16:46;;;;;;;8.70;5.00;;;10.50;62.10;;;;;;5177963;28;20074;-64
2021/04/29 06:19:19;;;;;;;14.57;8.70;;;10.50;62.30;;;;;;5178772;28;20043;-64
2021/04/29 06:21:50;;;;;;;16.85;9.63;;;10.50;62.00;;;;;;5176279;28;20073;-65
2021/04/29 06:24:21;;;;;;;7.70;4.63;;;10.50;61.80;;;;;;5179774;28;20050;-64
2021/04/29 06:26:53;;;;;;;8.70;4.82;;;10.50;62.50;;;;;;5177623;28;20038;-64
2021/04/29 06:29:24;;;;;;;5.82;4.20;;;10.50;63.10;;;;;;5178225;28;20438;-64
2021/04/29 06:31:57;;;;;;;5.30;3.65;;;10.40;63.10;;;;;;5178871;28;20068;-64
2021/04/29 06:34:28;;;;;;;5.32;3.63;;;10.50;63.60;;;;;;5176913;28;20739;-64
2021/04/29 06:37:01;;;;;;;5.45;3.72;;;10.50;63.60;;;;;;5160100;28;20034;-64
2021/04/29 06:39:33;;;;;;;5.80;4.00;;;10.50;63.60;;;;;;5176651;28;20545;-64
2021/04/29 06:42:05;;;;;;;5.60;3.85;;;10.60;63.50;;;;;;5176558;28;20043;-66
2021/04/29 06:44:36;;;;;;;7.28;4.32;;;10.60;63.40;;;;;;5179423;28;20069;-64
2021/04/29 06:47:09;;;;;;;5.97;3.80;;;10.60;63.30;;;;;;5175222;28;20080;-64
2021/04/29 06:49:40;;;;;;;5.45;3.78;;;10.60;63.50;;;;;;5179372;28;20119;-66
2021/04/29 06:52:14;;;;;;;5.60;3.75;;;10.60;64.40;;;;;;5178075;28;20128;-65
2021/04/29 06:54:46;;;;;;;6.20;3.88;;;10.60;64.20;;;;;;5177554;28;20042;-64
2021/04/29 06:57:17;;;;;;;6.03;3.90;;;10.70;64.00;;;;;;5175084;28;20124;-64
2021/04/29 06:59:49;;;;;;;6.47;4.00;;;10.70;63.80;;;;;;5177984;28;20165;-65
2021/04/29 07:02:20;;;;;;;6.20;4.07;;;10.70;64.70;;;;;;5178801;28;20049;-64
2021/04/29 07:05:03;;;;;;;5.32;3.83;;;10.70;63.70;;;;;;5177678;28;20104;-66
2021/04/29 07:07:34;;;;;;;6.07;4.10;;;10.60;64.30;;;;;;5161151;28;20050;-64
2021/04/29 07:10:07;;;;;;;7.03;4.20;;;10.60;64.90;;;;;;5169562;28;20653;-65
2021/04/29 07:12:38;;;;;;;6.53;4.65;;;10.70;64.20;;;;;;5177484;28;20569;-65
2021/04/29 07:15:10;;;;;;;7.47;4.35;;;10.70;65.50;;;;;;5177330;28;20189;-65
2021/04/29 07:17:42;;;;;;;7.30;4.00;;;10.70;64.80;;;;;;5177111;28;20748;-64
2021/04/29 07:20:14;;;;;;;5.78;4.10;;;10.70;64.70;;;;;;5175314;28;20065;-65
2021/04/29 07:22:46;;;;;;;5.68;4.20;;;10.80;65.00;;;;;;5178755;28;20042;-68
2021/04/29 07:25:17;;;;;;;5.80;4.20;;;10.80;65.30;;;;;;5175338;28;20050;-67
2021/04/29 07:27:50;;;;;;;6.68;4.25;;;10.90;65.10;;;;;;5178134;28;20042;-68
2021/04/29 07:30:21;;;;;;;5.97;4.30;;;10.80;64.80;;;;;;5174278;28;20111;-68
2021/04/29 07:32:53;;;;;;;8.10;4.40;;;10.80;64.70;;;;;;5173651;28;20116;-67
2021/04/29 07:35:25;;;;;;;7.55;4.63;;;10.80;65.10;;;;;;5174654;28;20057;-67
2021/04/29 07:37:57;;;;;;;10.85;4.95;;;10.70;64.90;;;;;;5160009;28;20562;-67
2021/04/29 07:40:31;;;;;;;9.52;5.05;;;10.60;65.50;;;;;;5174851;28;20050;-67
2021/04/29 07:43:02;;;;;;;6.28;5.10;;;10.50;65.90;;;;;;5176338;28;20052;-67
2021/04/29 07:45:34;;;;;;;7.22;4.82;;;10.50;67.10;;;;;;5175806;28;20275;-67
2021/04/29 07:48:06;;;;;;;7.50;4.85;;;10.40;66.90;;;;;;5177450;28;20385;-69
2021/04/29 07:50:37;;;;;;;7.65;5.20;;;10.40;67.00;;;;;;5154227;28;20574;-67
2021/04/29 07:53:09;;;;;;;6.60;4.88;;;10.40;67.40;;;;;;5174429;28;20056;-67
2021/04/29 07:55:41;;;;;;;6.63;4.93;;;10.40;67.80;;;;;;5158235;28;20054;-66
2021/04/29 07:58:12;;;;;;;6.53;5.10;;;10.40;68.00;;;;;;5176079;28;20119;-66
2021/04/29 08:00:59;;;;;;;7.88;5.38;;;10.50;68.70;;;;;;5177508;28;20042;-66
2021/04/29 08:03:31;;;;;;;8.05;5.05;;;10.50;68.60;;;;;;5178977;28;20077;-66
2021/04/29 08:06:02;;;;;;;7.10;5.05;;;10.50;68.40;;;;;;5176600;28;20655;-66
2021/04/29 08:08:34;;;;;;;8.45;5.85;;;10.60;68.40;;;;;;5159926;28;20050;-66
2021/04/29 08:11:07;;;;;;;7.95;5.38;;;10.70;68.40;;;;;;5159593;28;20045;-67
2021/04/29 08:13:39;;;;;;;7.72;5.22;;;10.80;67.80;;;;;;5178594;28;20196;-66
2021/04/29 08:16:11;;;;;;;8.70;5.50;;;10.90;67.50;;;;;;5176073;28;20054;-67
2021/04/29 08:18:43;;;;;;;7.13;5.07;;;10.90;67.50;;;;;;5177916;28;20171;-67
2021/04/29 08:21:15;;;;;;;7.05;5.38;;;10.90;67.40;;;;;;5177304;28;20050;-66
2021/04/29 08:23:47;;;;;;;6.22;4.80;;;11.00;67.70;;;;;;5178685;28;20463;-67
2021/04/29 08:26:18;;;;;;;8.50;5.10;;;11.10;66.80;;;;;;5177871;28;20069;-67
2021/04/29 08:28:50;;;;;;;6.53;5.20;;;11.20;66.20;;;;;;5177046;28;20041;-67
2021/04/29 08:31:22;;;;;;;6.72;4.70;;;11.30;65.40;;;;;;5177076;28;20127;-67
2021/04/29 08:33:53;;;;;;;8.95;4.90;;;11.30;66.60;;;;;;5177243;28;20099;-66
2021/04/29 08:36:29;;;;;;;9.65;5.95;;;11.50;65.90;;;;;;5176954;28;20080;-66
2021/04/29 08:39:03;;;;;;;7.72;5.20;;;11.40;65.60;;;;;;5176856;28;20050;-67
2021/04/29 08:41:35;;;;;;;9.30;5.40;;;11.50;65.70;;;;;;5177086;28;20049;-66
2021/04/29 08:44:07;;;;;;;6.72;5.07;;;11.60;66.00;;;;;;5159451;28;20133;-66
2021/04/29 08:46:39;;;;;;;8.63;5.55;;;11.70;65.80;;;;;;5176099;28;20231;-67
2021/04/29 08:49:10;;;;;;;6.95;4.85;;;11.60;65.90;;;;;;5158672;28;20118;-66
2021/04/29 08:51:43;;;;;;;7.60;4.85;;;11.60;65.30;;;;;;5175545;28;20045;-66
2021/04/29 08:54:15;;;;;;;8.43;5.00;;;11.60;65.00;;;;;;5177881;28;20046;-67
2021/04/29 08:56:48;;;;;;;8.20;5.60;;;11.60;65.30;;;;;;5175859;28;20050;-66
2021/04/29 08:59:20;;;;;;;6.85;5.32;;;11.70;66.00;;;;;;5177591;28;20061;-67
2021/04/29 09:01:51;;;;;;;7.65;5.05;;;11.80;64.20;;;;;;5177183;28;20128;-67
2021/04/29 09:04:23;;;;;;;7.47;5.95;;;11.80;63.50;;;;;;5176676;28;20416;-67
2021/04/29 09:06:56;;;;;;;7.82;4.95;;;11.80;64.20;;;;;;5147220;28;20579;-67
2021/04/29 09:09:27;;;;;;;7.40;4.60;;;11.80;63.60;;;;;;5177789;28;20443;-66
2021/04/29 09:11:58;;;;;;;7.05;4.80;;;11.90;63.10;;;;;;5150100;28;20066;-67
2021/04/29 09:14:45;;;;;;;6.03;4.47;;;11.90;62.60;;;;;;5160616;28;20807;-67
2021/04/29 09:17:23;;;;;;;6.30;4.68;;;11.90;63.60;;;;;;5159219;28;20056;-66
2021/04/29 09:19:55;;;;;;;6.32;4.72;;;11.90;62.30;;;;;;5177343;28;20052;-67
2021/04/29 09:22:26;;;;;;;6.15;4.68;;;12.00;63.10;;;;;;5176053;28;20045;-66
2021/04/29 09:24:58;;;;;;;9.15;5.10;;;12.00;63.30;;;;;;5177466;28;20516;-66
2021/04/29 09:27:31;;;;;;;7.22;5.18;;;12.00;63.20;;;;;;5176682;28;20061;-67
2021/04/29 09:30:05;;;;;;;6.32;5.32;;;12.10;62.50;;;;;;5143181;28;20546;-67
2021/04/29 09:32:37;;;;;;;7.53;4.80;;;12.20;62.70;;;;;;5176105;28;20058;-67
2021/04/29 09:35:22;;;;;;;7.72;5.13;;;12.30;62.30;;;;;;5176813;28;20046;-66
2021/04/29 09:37:59;;;;;;;7.35;5.50;;;12.50;63.30;;;;;;5176974;28;20038;-67
2021/04/29 09:40:33;;;;;;;8.45;4.97;;;12.60;61.30;;;;;;5175856;28;20459;-66
2021/04/29 09:43:07;;;;;;;7.13;4.75;;;12.70;62.30;;;;;;5177086;28;20042;-66
2021/04/29 09:45:39;;;;;;;7.25;5.03;;;12.90;61.00;;;;;;5176496;28;20125;-67
2021/04/29 09:48:11;;;;;;;6.70;4.90;;;13.00;60.30;;;;;;5159996;28;20047;-67
2021/04/29 09:50:46;;;;;;;7.45;5.50;;;13.20;60.30;;;;;;5175513;28;20034;-67
2021/04/29 09:53:17;;;;;;;7.25;5.20;;;13.30;60.70;;;;;;5169490;28;20834;-67
2021/04/29 09:55:49;;;;;;;6.45;5.00;;;13.40;59.70;;;;;;5168942;28;20042;-67
2021/04/29 09:58:27;;;;;;;5.97;4.93;;;13.40;58.50;;;;;;5171510;28;20053;-67
2021/04/29 10:00:58;;;;;;;9.70;7.05;;;13.50;56.70;;;;;;5142332;28;20100;-67
2021/04/29 10:03:31;;;;;;;7.53;5.78;;;13.70;58.10;;;;;;5156559;28;20050;-67
2021/04/29 10:06:03;;;;;;;7.13;5.53;;;13.80;56.50;;;;;;5169931;28;20037;-68
2021/04/29 10:08:35;;;;;;;7.40;6.00;;;14.00;56.00;;;;;;5141656;28;20452;-67
2021/04/29 10:11:07;;;;;;;8.98;5.90;;;14.10;57.70;;;;;;5159605;28;20045;-66
2021/04/29 10:13:43;;;;;;;7.60;5.47;;;14.30;57.00;;;;;;5174271;28;20148;-67
2021/04/29 10:16:16;;;;;;;8.25;5.70;;;14.50;58.20;;;;;;5171577;28;20042;-68
2021/04/29 10:18:49;;;;;;;7.00;5.78;;;14.70;53.90;;;;;;5173098;28;20041;-68
2021/04/29 10:21:21;;;;;;;6.93;6.00;;;14.80;56.40;;;;;;5174885;28;20049;-67
2021/04/29 10:23:52;;;;;;;7.30;5.75;;;14.90;51.70;;;;;;5159805;28;20070;-67
2021/04/29 10:26:29;;;;;;;7.07;5.72;;;15.00;52.30;;;;;;5175932;28;20172;-66
2021/04/29 10:29:06;;;;;;;9.02;5.88;;;15.00;52.60;;;;;;5178126;28;20554;-67
2021/04/29 10:31:37;;;;;;;11.18;5.50;;;15.00;51.30;;;;;;5178290;28;20053;-66
2021/04/29 10:34:11;;;;;;;8.32;5.82;;;15.00;52.70;;;;;;5179393;28;20046;-66
2021/04/29 10:36:48;;;;;;;7.85;5.78;;;14.90;50.00;;;;;;5173975;28;20149;-66
2021/04/29 10:39:24;;;;;;;8.15;5.88;;;14.90;50.10;;;;;;5177000;28;20068;-68
2021/04/29 10:42:03;;;;;;;8.25;5.43;;;14.90;52.90;;;;;;5175137;28;20058;-67
2021/04/29 10:45:09;;;;;;;8.55;6.10;;;14.90;50.00;;;;;;5178535;28;20168;-67
2021/04/29 10:47:41;;;;;;;8.48;5.82;;;15.00;50.20;;;;;;5172745;28;20578;-67
2021/04/29 10:50:16;;;;;;;8.32;5.65;;;15.10;48.70;;;;;;5178291;28;20038;-67
2021/04/29 10:52:56;;;;;;;7.45;5.55;;;15.20;49.90;;;;;;5179064;28;20049;-67
2021/04/29 10:55:38;;;;;;;10.93;6.20;;;15.30;50.10;;;;;;5153990;28;20046;-67
2021/04/29 10:58:22;;;;;;;8.85;5.68;;;15.40;46.80;;;;;;5177857;28;20514;-67
2021/04/29 11:01:21;;;;;;;13.75;12.15;;;15.40;46.50;;;;;;5177575;28;20041;-67
2021/04/29 11:03:53;;;;;;;9.30;6.70;;;15.40;46.50;;;;;;5176749;28;20050;-67
2021/04/29 11:06:28;;;;;;;8.43;5.55;;;15.30;46.90;;;;;;5158824;28;20781;-66
2021/04/29 11:09:01;;;;;;;7.65;5.47;;;15.30;49.50;;;;;;5177779;28;20507;-67
2021/04/29 11:11:36;;;;;;;7.82;5.65;;;15.30;48.10;;;;;;5160173;28;20571;-67
2021/04/29 11:14:17;;;;;;;7.13;5.15;;;15.20;47.90;;;;;;5159078;28;20076;-67
2021/04/29 11:16:55;;;;;;;8.48;5.40;;;15.00;48.10;;;;;;5177722;28;20570;-67
2021/04/29 11:19:47;;;;;;;7.82;5.55;;;15.00;46.70;;;;;;5177859;28;20096;-67
2021/04/29 11:22:26;;;;;;;10.35;5.20;;;14.80;44.50;;;;;;5178388;28;20049;-67
2021/04/29 11:24:58;;;;;;;7.53;6.03;;;14.60;45.80;;;;;;5179053;28;20077;-66
2021/04/29 11:27:35;;;;;;;6.63;4.80;;;14.70;48.50;;;;;;5177618;28;20488;-66
2021/04/29 11:30:13;;;;;;;6.20;4.80;;;14.70;46.20;;;;;;5176016;28;20137;-67
2021/04/29 11:33:04;;;;;;;5.95;4.80;;;14.60;48.30;;;;;;5176962;28;20038;-66
2021/04/29 11:35:39;;;;;;;8.52;4.97;;;14.60;47.00;;;;;;5175792;28;20054;-66
2021/04/29 11:38:12;;;;;;;9.07;4.60;;;14.50;47.40;;;;;;5176851;28;20034;-67
2021/04/29 11:40:44;;;;;;;8.45;4.13;;;14.50;46.50;;;;;;5174181;28;20037;-66
2021/04/29 11:43:15;;;;;;;6.47;4.55;;;14.40;46.70;;;;;;5176310;28;20042;-66
2021/04/29 11:45:47;;;;;;;7.35;4.55;;;14.30;47.60;;;;;;5175933;28;20059;-66
2021/04/29 11:48:24;;;;;;;6.60;4.90;;;14.20;47.40;;;;;;5175266;28;20050;-66
2021/04/29 11:50:58;;;;;;;7.13;4.78;;;14.10;47.20;;;;;;5177153;28;20042;-66
2021/04/29 11:53:31;;;;;;;5.93;4.57;;;14.20;49.60;;;;;;5177852;28;20049;-66
2021/04/29 11:56:04;;;;;;;5.78;4.63;;;14.30;47.80;;;;;;5176655;28;20050;-67
2021/04/29 11:58:36;;;;;;;6.82;4.60;;;14.40;49.10;;;;;;5176911;28;20128;-66
2021/04/29 12:01:15;;;;;;;7.32;4.28;;;14.30;49.20;;;;;;5173825;28;20137;-66
2021/04/29 12:03:47;;;;;;;7.47;4.65;;;14.10;49.30;;;;;;5176608;28;20045;-66
2021/04/29 12:06:19;;;;;;;9.00;4.85;;;14.00;47.80;;;;;;5175442;28;20455;-66
2021/04/29 12:08:51;;;;;;;7.50;4.72;;;14.10;48.90;;;;;;5175721;28;20049;-65
2021/04/29 12:11:22;;;;;;;7.20;4.45;;;14.10;47.20;;;;;;5174740;28;20119;-66
2021/04/29 12:13:54;;;;;;;6.25;4.10;;;14.10;46.60;;;;;;5157768;28;20419;-66
2021/04/29 12:16:29;;;;;;;6.03;3.92;;;14.10;47.10;;;;;;5176960;28;20045;-68
2021/04/29 12:19:03;;;;;;;6.25;4.10;;;14.30;48.80;;;;;;5157249;28;20132;-67
2021/04/29 12:21:34;;;;;;;6.55;4.20;;;14.30;45.30;;;;;;5175247;28;20057;-66
2021/04/29 12:24:09;;;;;;;9.30;4.78;;;14.30;44.60;;;;;;5154352;28;20507;-66
2021/04/29 12:26:42;;;;;;;7.57;5.13;;;14.20;45.50;;;;;;5170573;28;20519;-67
2021/04/29 12:29:22;;;;;;;5.30;3.97;;;14.30;45.70;;;;;;5176636;28;20045;-66
2021/04/29 12:32:04;;;;;;;5.68;4.40;;;14.30;44.00;;;;;;5174763;28;20124;-66
2021/04/29 12:34:44;;;;;;;6.38;4.47;;;14.20;44.70;;;;;;5175425;28;20545;-66
2021/04/29 12:37:16;;;;;;;33.47;7.63;;;14.20;45.50;;;;;;5174666;28;20038;-69
2021/04/29 12:39:48;;;;;;;8.63;4.78;;;14.10;45.00;;;;;;5153162;28;20049;-66
2021/04/29 12:42:22;;;;;;;8.00;4.80;;;14.00;46.80;;;;;;5173737;28;20046;-67
2021/04/29 12:45:03;;;;;;;7.68;4.53;;;14.10;46.90;;;;;;5177171;28;20133;-66
2021/04/29 12:47:36;;;;;;;8.13;4.47;;;14.20;46.90;;;;;;5176766;28;20496;-66
2021/04/29 12:50:10;;;;;;;6.28;4.38;;;14.20;47.10;;;;;;5176508;28;20070;-66
2021/04/29 12:52:47;;;;;;;7.13;4.68;;;14.20;44.70;;;;;;5175456;28;20188;-67
2021/04/29 12:55:21;;;;;;;7.85;5.00;;;14.20;45.10;;;;;;5176783;28;20133;-66
2021/04/29 12:58:03;;;;;;;6.97;4.80;;;14.20;45.10;;;;;;5158120;28;20125;-67
2021/04/29 13:00:34;;;;;;;8.88;5.22;;;14.00;46.00;;;;;;5176813;28;20046;-67
2021/04/29 13:03:05;;;;;;;9.65;5.00;;;14.00;45.00;;;;;;5175578;28;20061;-67
2021/04/29 13:05:37;;;;;;;8.07;4.50;;;14.00;46.40;;;;;;5154361;28;20111;-67
2021/04/29 13:08:09;;;;;;;6.82;5.18;;;14.00;46.90;;;;;;5176984;28;20096;-67
2021/04/29 13:10:41;;;;;;;8.60;5.50;;;13.90;47.00;;;;;;5142591;28;20060;-67
2021/04/29 13:13:12;;;;;;;8.10;5.53;;;14.00;47.20;;;;;;5176160;28;20030;-68
2021/04/29 13:15:49;;;;;;;7.75;5.13;;;14.20;46.00;;;;;;5159377;28;20113;-67
2021/04/29 13:18:27;;;;;;;11.13;5.28;;;14.20;45.10;;;;;;5176004;28;20073;-66